Time;durP1;ratioP1;P1;durP2;ratioP2;P2;SDS_P1;SDS_P2;PMS_P1;PMS_P2;Temp;Humidity;BMP_temperature;BMP_pressure;BME280_temperature;BME280_humidity;BME280_pressure;Samples;Min_cycle;Max_cycle;Signal;HPM_P1;HPM_P2
2023/09/28 00:01:03;;;;;;;3.17;2.90;;;;;;;;;;5079678;28;20223;-46
2023/09/28 00:03:29;;;;;;;3.03;2.83;;;;;;;;;;5080629;28;20211;-42
2023/09/28 00:05:56;;;;;;;4.63;3.70;;;;;;;;;;5074517;28;20205;-45
2023/09/28 00:08:22;;;;;;;3.87;3.57;;;;;;;;;;5075931;28;20209;-41
2023/09/28 00:10:49;;;;;;;3.30;2.87;;;;;;;;;;5072815;28;20278;-46
2023/09/28 00:13:17;;;;;;;3.53;3.23;;;;;;;;;;5086055;28;20212;-44
2023/09/28 00:15:43;;;;;;;4.13;2.90;;;;;;;;;;5076039;28;20201;-43
2023/09/28 00:18:12;;;;;;;3.03;2.50;;;;;;;;;;5079758;28;20291;-43
2023/09/28 00:20:38;;;;;;;2.83;2.63;;;;;;;;;;5087123;28;20429;-44
2023/09/28 00:23:05;;;;;;;3.27;2.80;;;;;;;;;;5073413;28;20201;-44
2023/09/28 00:25:32;;;;;;;3.33;2.80;;;;;;;;;;5086861;28;20771;-44
2023/09/28 00:28:00;;;;;;;4.13;2.90;;;;;;;;;;5087872;28;20219;-44
2023/09/28 00:30:26;;;;;;;3.77;2.70;;;;;;;;;;5086323;28;20288;-38
2023/09/28 00:32:54;;;;;;;2.83;2.63;;;;;;;;;;5076725;28;20512;-44
2023/09/28 00:35:22;;;;;;;4.17;3.00;;;;;;;;;;5087696;28;20207;-46
2023/09/28 00:37:49;;;;;;;3.37;3.03;;;;;;;;;;5074852;28;20240;-39
2023/09/28 00:40:17;;;;;;;3.93;3.63;;;;;;;;;;5080197;28;20228;-41
2023/09/28 00:42:44;;;;;;;3.87;3.57;;;;;;;;;;5085077;28;20242;-44
2023/09/28 00:45:10;;;;;;;4.07;3.67;;;;;;;;;;5072945;28;20296;-47
2023/09/28 00:47:39;;;;;;;3.40;2.60;;;;;;;;;;5085180;28;20221;-42
2023/09/28 00:50:09;;;;;;;4.03;2.90;;;;;;;;;;5082937;28;20232;-46
2023/09/28 00:52:37;;;;;;;3.73;3.43;;;;;;;;;;5072979;28;20212;-41
2023/09/28 00:55:04;;;;;;;3.70;3.40;;;;;;;;;;5084137;28;20295;-43
2023/09/28 00:57:33;;;;;;;3.60;2.70;;;;;;;;;;5088106;28;20219;-45
2023/09/28 00:59:59;;;;;;;3.73;3.40;;;;;;;;;;5071947;28;20249;-40
2023/09/28 01:02:27;;;;;;;2.80;2.60;;;;;;;;;;5077300;28;20766;-43
2023/09/28 01:04:55;;;;;;;4.07;3.67;;;;;;;;;;5074117;28;20205;-44
2023/09/28 01:07:29;;;;;;;3.27;2.97;;;;;;;;;;5076245;28;20200;-47
2023/09/28 01:09:58;;;;;;;3.83;2.83;;;;;;;;;;5081890;28;20223;-42
2023/09/28 01:12:26;;;;;;;3.97;3.53;;;;;;;;;;5078327;28;20205;-43
2023/09/28 01:14:56;;;;;;;3.70;3.40;;;;;;;;;;5074927;28;20300;-41
2023/09/28 01:17:23;;;;;;;3.43;3.07;;;;;;;;;;5088805;28;20295;-40
2023/09/28 01:19:50;;;;;;;3.90;3.57;;;;;;;;;;5079806;28;20247;-43
2023/09/28 01:22:18;;;;;;;4.07;3.63;;;;;;;;;;5091484;28;20201;-44
2023/09/28 01:24:44;;;;;;;3.93;3.47;;;;;;;;;;5088367;28;20231;-44
2023/09/28 01:27:11;;;;;;;4.50;3.53;;;;;;;;;;5087414;28;20200;-42
2023/09/28 01:29:38;;;;;;;3.30;3.00;;;;;;;;;;5076918;28;20220;-45
2023/09/28 01:32:05;;;;;;;3.20;2.90;;;;;;;;;;5076980;28;20213;-40
2023/09/28 01:34:31;;;;;;;3.57;3.03;;;;;;;;;;5080239;28;20201;-42
2023/09/28 01:36:58;;;;;;;5.27;3.60;;;;;;;;;;5086147;28;20221;-45
2023/09/28 01:39:26;;;;;;;3.60;3.27;;;;;;;;;;5083041;28;20224;-40
2023/09/28 01:41:53;;;;;;;4.37;3.00;;;;;;;;;;5084117;28;20262;-42
2023/09/28 01:44:19;;;;;;;3.80;2.83;;;;;;;;;;5082646;28;20205;-45
2023/09/28 01:46:46;;;;;;;3.63;3.30;;;;;;;;;;5092768;28;20193;-41
2023/09/28 01:49:13;;;;;;;4.23;3.83;;;;;;;;;;5081552;28;21868;-43
2023/09/28 01:51:40;;;;;;;3.43;3.13;;;;;;;;;;5081071;28;20288;-41
2023/09/28 01:54:06;;;;;;;3.87;3.50;;;;;;;;;;5073161;28;20312;-43
2023/09/28 01:56:34;;;;;;;3.83;3.03;;;;;;;;;;5080399;28;20243;-45
2023/09/28 01:59:00;;;;;;;5.67;3.77;;;;;;;;;;5085089;28;20216;-43
2023/09/28 02:01:28;;;;;;;3.20;2.90;;;;;;;;;;5082965;28;20201;-44
2023/09/28 02:03:55;;;;;;;3.33;3.07;;;;;;;;;;5077975;28;20443;-44
2023/09/28 02:06:22;;;;;;;3.43;3.07;;;;;;;;;;5082321;28;20201;-39
2023/09/28 02:08:48;;;;;;;3.40;3.10;;;;;;;;;;5082584;28;20205;-40
2023/09/28 02:11:15;;;;;;;4.73;4.10;;;;;;;;;;5086659;28;20220;-44
2023/09/28 02:13:44;;;;;;;3.97;2.80;;;;;;;;;;5080450;28;20202;-45
2023/09/28 02:16:12;;;;;;;3.50;3.20;;;;;;;;;;5080871;28;20208;-42
2023/09/28 02:18:41;;;;;;;3.67;3.30;;;;;;;;;;5072570;28;20221;-43
2023/09/28 02:21:12;;;;;;;4.17;3.77;;;;;;;;;;5087538;28;20212;-44
2023/09/28 02:23:38;;;;;;;4.90;4.03;;;;;;;;;;5084989;28;20283;-47
2023/09/28 02:26:07;;;;;;;3.83;3.43;;;;;;;;;;5087969;28;20201;-41
2023/09/28 02:28:34;;;;;;;4.40;4.00;;;;;;;;;;5087506;28;20542;-40
2023/09/28 02:31:09;;;;;;;4.10;3.70;;;;;;;;;;5072023;28;20254;-42
2023/09/28 02:33:35;;;;;;;2.70;2.50;;;;;;;;;;5088411;28;20200;-43
2023/09/28 02:36:02;;;;;;;4.00;3.33;;;;;;;;;;5083338;28;20197;-43
2023/09/28 02:38:29;;;;;;;3.60;3.30;;;;;;;;;;5082572;28;20220;-38
2023/09/28 02:40:56;;;;;;;4.50;3.33;;;;;;;;;;5077223;28;20224;-39
2023/09/28 02:43:22;;;;;;;3.80;3.50;;;;;;;;;;5090123;28;20205;-44
2023/09/28 02:45:49;;;;;;;3.30;2.57;;;;;;;;;;5091754;28;20608;-38
2023/09/28 02:48:17;;;;;;;3.80;3.50;;;;;;;;;;5090773;28;20224;-45
2023/09/28 02:50:44;;;;;;;5.13;3.40;;;;;;;;;;5081666;28;20435;-45
2023/09/28 02:53:10;;;;;;;3.70;3.40;;;;;;;;;;5083544;28;20212;-43
2023/09/28 02:55:38;;;;;;;4.00;3.60;;;;;;;;;;5078489;28;20251;-42
2023/09/28 02:58:04;;;;;;;3.63;3.20;;;;;;;;;;5091327;28;20246;-40
2023/09/28 03:00:32;;;;;;;3.10;2.80;;;;;;;;;;5082575;28;20220;-45
2023/09/28 03:03:00;;;;;;;3.40;3.10;;;;;;;;;;5076812;28;20241;-43
2023/09/28 03:05:29;;;;;;;4.23;3.03;;;;;;;;;;5072723;28;20268;-45
2023/09/28 03:07:55;;;;;;;3.63;3.33;;;;;;;;;;5085159;28;20229;-42
2023/09/28 03:10:22;;;;;;;3.50;3.20;;;;;;;;;;5072942;28;20228;-43
2023/09/28 03:12:51;;;;;;;2.67;2.47;;;;;;;;;;5090715;28;20239;-41
2023/09/28 03:15:20;;;;;;;4.57;2.90;;;;;;;;;;5090457;28;20251;-45
2023/09/28 03:17:46;;;;;;;3.23;2.93;;;;;;;;;;5090777;28;20224;-43
2023/09/28 03:20:14;;;;;;;3.77;3.47;;;;;;;;;;5088712;28;20217;-45
2023/09/28 03:22:43;;;;;;;3.63;3.30;;;;;;;;;;5081122;28;20213;-46
2023/09/28 03:25:16;;;;;;;4.07;3.10;;;;;;;;;;5083446;28;20212;-40
2023/09/28 03:27:43;;;;;;;4.03;3.37;;;;;;;;;;5079019;28;20197;-44
2023/09/28 03:30:11;;;;;;;3.37;3.07;;;;;;;;;;5086386;28;20221;-39
2023/09/28 03:32:38;;;;;;;3.30;2.90;;;;;;;;;;5071048;28;20216;-44
2023/09/28 03:35:05;;;;;;;5.10;3.43;;;;;;;;;;5081594;28;20599;-45
2023/09/28 03:37:32;;;;;;;4.03;3.63;;;;;;;;;;5081308;28;20228;-44
2023/09/28 03:40:09;;;;;;;4.77;3.40;;;;;;;;;;5083225;28;20231;-42
2023/09/28 03:42:37;;;;;;;3.00;2.80;;;;;;;;;;5086887;28;20222;-45
2023/09/28 03:45:04;;;;;;;3.97;3.60;;;;;;;;;;5076414;28;20216;-42
2023/09/28 03:47:32;;;;;;;3.33;3.13;;;;;;;;;;5078297;28;20205;-41
2023/09/28 03:50:00;;;;;;;3.50;3.20;;;;;;;;;;5085503;28;20225;-44
2023/09/28 03:52:27;;;;;;;5.37;3.37;;;;;;;;;;5081966;28;20209;-46
2023/09/28 03:54:54;;;;;;;3.87;3.33;;;;;;;;;;5082200;28;20247;-41
2023/09/28 03:57:23;;;;;;;3.10;2.90;;;;;;;;;;5078178;28;20221;-42
2023/09/28 03:59:50;;;;;;;4.37;3.00;;;;;;;;;;5089860;28;20235;-42
2023/09/28 04:02:17;;;;;;;3.90;3.57;;;;;;;;;;5082104;28;20205;-42
2023/09/28 04:04:44;;;;;;;4.50;4.10;;;;;;;;;;5083646;28;20209;-45
2023/09/28 04:07:12;;;;;;;4.27;3.93;;;;;;;;;;5079929;28;20217;-45
2023/09/28 04:09:39;;;;;;;3.50;3.20;;;;;;;;;;5086195;28;20608;-43
2023/09/28 04:12:06;;;;;;;3.73;3.40;;;;;;;;;;5071830;28;20211;-45
2023/09/28 04:14:35;;;;;;;3.57;3.23;;;;;;;;;;5088174;28;20205;-46
2023/09/28 04:17:02;;;;;;;4.40;3.43;;;;;;;;;;5089622;28;20224;-44
2023/09/28 04:19:30;;;;;;;3.23;3.00;;;;;;;;;;5089146;28;20238;-43
2023/09/28 04:21:57;;;;;;;4.00;3.50;;;;;;;;;;5087825;28;20639;-43
2023/09/28 04:24:24;;;;;;;4.97;3.70;;;;;;;;;;5081472;28;20216;-41
2023/09/28 04:26:51;;;;;;;4.07;3.57;;;;;;;;;;5082152;28;20216;-45
2023/09/28 04:29:20;;;;;;;4.00;3.33;;;;;;;;;;5078483;28;20261;-42
2023/09/28 04:31:49;;;;;;;3.87;3.57;;;;;;;;;;5081241;28;20227;-45
2023/09/28 04:34:16;;;;;;;3.33;3.03;;;;;;;;;;5079096;28;20208;-43
2023/09/28 04:36:44;;;;;;;4.00;3.70;;;;;;;;;;5080888;28;20208;-44
2023/09/28 04:39:11;;;;;;;3.80;3.50;;;;;;;;;;5084690;28;20296;-47
2023/09/28 04:41:39;;;;;;;4.17;3.77;;;;;;;;;;5075277;28;20201;-40
2023/09/28 04:44:06;;;;;;;4.00;3.60;;;;;;;;;;5074750;28;20299;-46
2023/09/28 04:46:34;;;;;;;5.63;3.67;;;;;;;;;;5079405;28;20201;-43
2023/09/28 04:49:02;;;;;;;4.43;3.90;;;;;;;;;;5083319;28;20197;-39
2023/09/28 04:51:30;;;;;;;3.43;3.13;;;;;;;;;;5075113;28;20299;-45
2023/09/28 04:53:57;;;;;;;3.70;3.27;;;;;;;;;;5074317;28;20219;-43
2023/09/28 04:56:24;;;;;;;4.37;3.97;;;;;;;;;;5078648;28;20238;-44
2023/09/28 04:58:51;;;;;;;5.03;4.03;;;;;;;;;;5082481;28;20594;-40
2023/09/28 05:01:18;;;;;;;6.23;3.47;;;;;;;;;;5073888;28;20303;-46
2023/09/28 05:03:45;;;;;;;4.23;3.53;;;;;;;;;;5080577;28;20204;-46
2023/09/28 05:06:14;;;;;;;4.53;3.80;;;;;;;;;;5078047;28;20205;-43
2023/09/28 05:08:42;;;;;;;5.43;3.90;;;;;;;;;;5077490;28;20209;-42
2023/09/28 05:11:09;;;;;;;3.80;3.37;;;;;;;;;;5069983;28;20349;-44
2023/09/28 05:13:37;;;;;;;4.10;3.70;;;;;;;;;;5078365;28;20219;-42
2023/09/28 05:16:04;;;;;;;3.20;3.00;;;;;;;;;;5075108;28;20303;-44
2023/09/28 05:18:31;;;;;;;4.07;3.53;;;;;;;;;;5086543;28;20254;-43
2023/09/28 05:20:58;;;;;;;4.77;4.27;;;;;;;;;;5087503;28;20235;-45
2023/09/28 05:23:27;;;;;;;4.03;3.60;;;;;;;;;;5089319;28;20219;-41
2023/09/28 05:25:54;;;;;;;3.70;3.40;;;;;;;;;;5076311;28;20328;-40
2023/09/28 05:28:21;;;;;;;4.07;3.67;;;;;;;;;;5082723;28;20204;-44
2023/09/28 05:30:48;;;;;;;3.67;3.30;;;;;;;;;;5082518;28;20229;-40
2023/09/28 05:33:16;;;;;;;3.43;3.13;;;;;;;;;;5081181;28;20308;-46
2023/09/28 05:35:43;;;;;;;3.03;2.80;;;;;;;;;;5086732;28;20296;-39
2023/09/28 05:38:10;;;;;;;5.00;4.40;;;;;;;;;;5076655;28;20217;-42
2023/09/28 05:40:39;;;;;;;3.83;3.53;;;;;;;;;;5068889;28;20229;-44
2023/09/28 05:43:06;;;;;;;4.33;3.93;;;;;;;;;;5089970;28;20291;-43
2023/09/28 05:45:33;;;;;;;5.17;4.67;;;;;;;;;;5091103;28;20208;-44
2023/09/28 05:48:01;;;;;;;3.10;2.90;;;;;;;;;;5086122;28;20209;-44
2023/09/28 05:50:28;;;;;;;3.87;3.47;;;;;;;;;;5077523;28;20252;-40
2023/09/28 05:52:56;;;;;;;5.10;4.03;;;;;;;;;;5090633;28;20594;-40
2023/09/28 05:55:24;;;;;;;5.10;4.57;;;;;;;;;;5075348;28;20217;-43
2023/09/28 05:57:53;;;;;;;5.17;4.67;;;;;;;;;;5084112;28;20378;-44
2023/09/28 06:00:20;;;;;;;5.37;4.67;;;;;;;;;;5075478;28;20261;-40
2023/09/28 06:02:48;;;;;;;4.97;3.83;;;;;;;;;;5089485;28;20205;-44
2023/09/28 06:05:15;;;;;;;4.73;4.33;;;;;;;;;;5086193;28;20205;-44
2023/09/28 06:07:42;;;;;;;4.97;4.00;;;;;;;;;;5092177;28;20208;-40
2023/09/28 06:10:10;;;;;;;4.97;4.30;;;;;;;;;;5077722;28;20220;-44
2023/09/28 06:12:37;;;;;;;5.30;3.97;;;;;;;;;;5083311;28;20223;-43
2023/09/28 06:15:08;;;;;;;4.63;4.13;;;;;;;;;;5082335;28;20543;-44
2023/09/28 06:17:36;;;;;;;4.80;4.07;;;;;;;;;;5090829;28;20201;-44
2023/09/28 06:20:05;;;;;;;4.37;3.90;;;;;;;;;;5082213;28;20232;-42
2023/09/28 06:22:33;;;;;;;6.30;4.47;;;;;;;;;;5091961;28;20208;-41
2023/09/28 06:25:00;;;;;;;4.53;3.87;;;;;;;;;;5090057;28;20255;-41
2023/09/28 06:27:28;;;;;;;4.83;4.43;;;;;;;;;;5083334;28;20213;-40
2023/09/28 06:29:56;;;;;;;6.63;4.00;;;;;;;;;;5077670;28;20232;-44
2023/09/28 06:32:24;;;;;;;4.30;3.90;;;;;;;;;;5077059;28;20236;-44
2023/09/28 06:34:51;;;;;;;6.20;4.20;;;;;;;;;;5086975;28;20208;-46
2023/09/28 06:37:19;;;;;;;3.73;3.37;;;;;;;;;;5086586;28;20198;-44
2023/09/28 06:39:46;;;;;;;6.87;4.47;;;;;;;;;;5088211;28;20224;-45
2023/09/28 06:42:13;;;;;;;4.57;4.17;;;;;;;;;;5085052;28;20653;-45
2023/09/28 06:44:40;;;;;;;4.67;4.23;;;;;;;;;;5083933;28;20207;-41
2023/09/28 06:47:08;;;;;;;4.03;3.63;;;;;;;;;;5087389;28;20273;-45
2023/09/28 06:49:36;;;;;;;4.00;3.60;;;;;;;;;;5091418;28;20216;-41
2023/09/28 06:52:03;;;;;;;6.70;4.30;;;;;;;;;;5089115;28;20202;-42
2023/09/28 06:54:32;;;;;;;5.40;4.37;;;;;;;;;;5081810;28;20212;-40
2023/09/28 06:57:00;;;;;;;6.43;4.43;;;;;;;;;;5091626;28;20201;-42
2023/09/28 06:59:28;;;;;;;6.90;3.90;;;;;;;;;;5084546;28;20236;-43
2023/09/28 07:01:55;;;;;;;4.40;4.00;;;;;;;;;;5080993;28;20209;-41
2023/09/28 07:04:23;;;;;;;4.50;4.03;;;;;;;;;;5078012;28;20291;-38
2023/09/28 07:06:51;;;;;;;7.83;4.60;;;;;;;;;;5093111;28;20205;-45
2023/09/28 07:09:18;;;;;;;5.53;3.80;;;;;;;;;;5085002;28;20248;-41
2023/09/28 07:11:46;;;;;;;5.87;4.73;;;;;;;;;;5086883;28;20197;-40
2023/09/28 07:14:13;;;;;;;7.70;4.10;;;;;;;;;;5092934;28;20219;-44
2023/09/28 07:16:40;;;;;;;6.53;4.97;;;;;;;;;;5092394;28;20209;-42
2023/09/28 07:19:07;;;;;;;6.53;5.37;;;;;;;;;;5084382;28;20628;-38
2023/09/28 07:21:34;;;;;;;4.03;3.67;;;;;;;;;;5088508;28;20196;-41
2023/09/28 07:24:03;;;;;;;8.63;4.50;;;;;;;;;;5077209;28;20211;-45
2023/09/28 07:26:32;;;;;;;7.10;4.43;;;;;;;;;;5088621;28;20279;-42
2023/09/28 07:29:00;;;;;;;5.87;4.90;;;;;;;;;;5079715;28;20208;-41
2023/09/28 07:31:27;;;;;;;6.87;4.57;;;;;;;;;;5092817;28;20769;-37
2023/09/28 07:33:56;;;;;;;6.63;5.70;;;;;;;;;;5081550;28;20197;-45
2023/09/28 07:36:24;;;;;;;4.97;4.57;;;;;;;;;;5087530;28;20196;-44
2023/09/28 07:38:51;;;;;;;7.40;5.70;;;;;;;;;;5072380;28;20248;-42
2023/09/28 07:41:19;;;;;;;6.23;5.63;;;;;;;;;;5083427;28;20220;-44
2023/09/28 07:43:46;;;;;;;5.70;5.07;;;;;;;;;;5087979;28;20629;-45
2023/09/28 07:46:14;;;;;;;9.77;5.37;;;;;;;;;;5086648;28;20207;-44
2023/09/28 07:48:41;;;;;;;4.47;4.07;;;;;;;;;;5091748;28;20197;-42
2023/09/28 07:51:08;;;;;;;5.67;4.83;;;;;;;;;;5084362;28;20217;-42
2023/09/28 07:53:36;;;;;;;6.20;4.53;;;;;;;;;;5087381;28;20204;-43
2023/09/28 07:56:03;;;;;;;6.53;5.83;;;;;;;;;;5077448;28;20285;-44
2023/09/28 07:58:31;;;;;;;5.43;4.53;;;;;;;;;;5086709;28;20225;-43
2023/09/28 08:00:58;;;;;;;5.67;5.07;;;;;;;;;;5075536;28;20251;-43
2023/09/28 08:03:26;;;;;;;4.83;4.20;;;;;;;;;;5092699;28;20284;-45
2023/09/28 08:05:54;;;;;;;5.37;4.20;;;;;;;;;;5087581;28;20641;-42
2023/09/28 08:08:21;;;;;;;6.77;4.63;;;;;;;;;;5083472;28;20287;-43
2023/09/28 08:10:48;;;;;;;6.07;5.00;;;;;;;;;;5076865;28;20224;-39
2023/09/28 08:13:16;;;;;;;5.70;4.90;;;;;;;;;;5086744;28;20213;-41
2023/09/28 08:15:45;;;;;;;5.60;4.57;;;;;;;;;;5081489;28;20201;-43
2023/09/28 08:18:13;;;;;;;5.80;4.97;;;;;;;;;;5075650;28;20200;-43
2023/09/28 08:20:40;;;;;;;6.57;5.60;;;;;;;;;;5089235;28;20228;-44
2023/09/28 08:23:07;;;;;;;6.60;5.00;;;;;;;;;;5078740;28;20327;-44
2023/09/28 08:25:35;;;;;;;6.50;4.53;;;;;;;;;;5080330;28;20208;-43
2023/09/28 08:28:02;;;;;;;6.50;4.33;;;;;;;;;;5083526;28;20205;-43
2023/09/28 08:30:29;;;;;;;6.33;5.07;;;;;;;;;;5088055;28;20232;-41
2023/09/28 08:32:58;;;;;;;5.17;4.67;;;;;;;;;;5080264;28;20299;-45
2023/09/28 08:35:25;;;;;;;12.97;5.00;;;;;;;;;;5078939;28;20240;-45
2023/09/28 08:37:52;;;;;;;6.63;5.10;;;;;;;;;;5081595;28;20201;-45
2023/09/28 08:40:20;;;;;;;5.80;5.20;;;;;;;;;;5076876;28;20225;-45
2023/09/28 08:42:48;;;;;;;6.27;4.83;;;;;;;;;;5085761;28;20212;-42
2023/09/28 08:45:16;;;;;;;6.60;5.00;;;;;;;;;;5083898;28;20201;-42
2023/09/28 08:47:48;;;;;;;7.50;5.30;;;;;;;;;;5075091;28;20205;-44
2023/09/28 08:50:19;;;;;;;8.73;5.47;;;;;;;;;;5086482;28;21018;-43
2023/09/28 08:52:47;;;;;;;6.10;5.07;;;;;;;;;;5081786;28;20251;-40
2023/09/28 08:55:14;;;;;;;7.07;4.80;;;;;;;;;;5076574;28;20292;-44
2023/09/28 08:57:43;;;;;;;6.70;5.30;;;;;;;;;;5085322;28;20200;-43
2023/09/28 09:00:13;;;;;;;6.00;5.03;;;;;;;;;;5087466;28;20267;-41
2023/09/28 09:02:42;;;;;;;6.53;5.00;;;;;;;;;;5087791;28;20279;-45
2023/09/28 09:05:11;;;;;;;5.63;5.10;;;;;;;;;;5082647;28;20279;-43
2023/09/28 09:07:41;;;;;;;6.20;5.13;;;;;;;;;;5091630;28;20261;-42
2023/09/28 09:10:09;;;;;;;5.97;4.77;;;;;;;;;;5081814;28;20224;-43
2023/09/28 09:12:36;;;;;;;6.40;5.03;;;;;;;;;;5085617;28;20214;-46
2023/09/28 09:15:06;;;;;;;7.50;5.10;;;;;;;;;;5082942;28;20211;-40
2023/09/28 09:17:34;;;;;;;7.13;4.60;;;;;;;;;;5083149;28;20201;-43
2023/09/28 09:20:01;;;;;;;5.77;4.47;;;;;;;;;;5082657;28;20257;-40
2023/09/28 09:22:29;;;;;;;7.43;5.03;;;;;;;;;;5089847;28;20294;-45
2023/09/28 09:24:58;;;;;;;7.23;4.20;;;;;;;;;;5090726;28;20291;-40
2023/09/28 09:27:29;;;;;;;6.30;4.17;;;;;;;;;;5079788;28;20207;-45
2023/09/28 09:29:58;;;;;;;5.03;3.90;;;;;;;;;;5072303;28;20243;-43
2023/09/28 09:32:27;;;;;;;4.47;3.90;;;;;;;;;;5079732;28;20205;-42
2023/09/28 09:34:55;;;;;;;5.93;4.23;;;;;;;;;;5086795;28;20218;-39
2023/09/28 09:37:22;;;;;;;3.97;3.57;;;;;;;;;;5084323;28;20211;-41
2023/09/28 09:39:49;;;;;;;4.67;3.83;;;;;;;;;;5085524;28;20228;-41
2023/09/28 09:42:27;;;;;;;3.97;3.33;;;;;;;;;;5086514;28;20204;-45
2023/09/28 09:44:56;;;;;;;3.60;3.30;;;;;;;;;;5076802;28;20204;-41
2023/09/28 09:47:23;;;;;;;4.70;3.43;;;;;;;;;;5080723;28;20295;-46
2023/09/28 09:49:53;;;;;;;3.70;3.40;;;;;;;;;;5086663;28;20320;-41
2023/09/28 09:52:20;;;;;;;7.07;3.57;;;;;;;;;;5084454;28;20207;-44
2023/09/28 09:54:48;;;;;;;3.67;3.23;;;;;;;;;;5093896;28;20468;-42
2023/09/28 09:57:17;;;;;;;5.00;3.53;;;;;;;;;;5081791;28;20211;-46
2023/09/28 09:59:48;;;;;;;6.83;3.43;;;;;;;;;;5082606;28;20232;-41
2023/09/28 10:02:22;;;;;;;4.83;3.10;;;;;;;;;;5081911;28;20265;-45
2023/09/28 10:04:51;;;;;;;3.47;3.17;;;;;;;;;;5090918;28;20204;-44
2023/09/28 10:07:19;;;;;;;9.50;3.30;;;;;;;;;;5091543;28;20276;-40
2023/09/28 10:09:46;;;;;;;3.87;3.13;;;;;;;;;;5077933;28;20308;-38
2023/09/28 10:12:14;;;;;;;2.93;2.30;;;;;;;;;;5088081;28;20216;-41
2023/09/28 10:14:41;;;;;;;3.30;2.40;;;;;;;;;;5090904;28;20207;-45
2023/09/28 10:17:11;;;;;;;5.50;3.47;;;;;;;;;;5082882;28;20205;-45
2023/09/28 10:19:39;;;;;;;5.10;4.30;;;;;;;;;;5076928;28;20278;-45
2023/09/28 10:22:06;;;;;;;5.43;2.90;;;;;;;;;;5093706;28;20201;-42
2023/09/28 10:24:34;;;;;;;3.40;2.50;;;;;;;;;;5085868;28;20219;-43
2023/09/28 10:27:08;;;;;;;3.87;2.83;;;;;;;;;;5082620;28;20206;-39
2023/09/28 10:29:35;;;;;;;3.20;2.50;;;;;;;;;;5084427;28;20225;-41
2023/09/28 10:32:03;;;;;;;6.33;2.50;;;;;;;;;;5083795;28;20206;-43
2023/09/28 10:34:31;;;;;;;3.97;2.33;;;;;;;;;;5085626;28;20205;-42
2023/09/28 10:37:19;;;;;;;2.97;2.67;;;;;;;;;;5083501;28;20217;-43
2023/09/28 10:39:49;;;;;;;5.13;2.60;;;;;;;;;;5087865;28;20221;-45
2023/09/28 10:42:17;;;;;;;5.33;2.40;;;;;;;;;;5088405;28;20207;-44
2023/09/28 10:44:47;;;;;;;4.17;2.50;;;;;;;;;;5083395;28;20324;-45
2023/09/28 10:47:14;;;;;;;2.67;2.13;;;;;;;;;;5086503;28;20201;-43
2023/09/28 10:49:43;;;;;;;3.33;2.57;;;;;;;;;;5089050;28;20244;-42
2023/09/28 10:52:10;;;;;;;6.30;2.80;;;;;;;;;;5090014;28;20201;-41
2023/09/28 10:54:38;;;;;;;4.87;2.13;;;;;;;;;;5092836;28;20291;-43
2023/09/28 10:57:05;;;;;;;3.93;2.40;;;;;;;;;;5082458;28;20197;-37
2023/09/28 10:59:33;;;;;;;7.10;2.57;;;;;;;;;;5090702;28;20255;-45
2023/09/28 11:02:02;;;;;;;5.47;2.20;;;;;;;;;;5092064;28;20202;-39
2023/09/28 11:04:30;;;;;;;2.57;2.27;;;;;;;;;;5090315;28;20211;-35
2023/09/28 11:07:00;;;;;;;3.73;2.13;;;;;;;;;;5088450;28;20202;-41
2023/09/28 11:09:31;;;;;;;8.57;2.93;;;;;;;;;;5086464;28;20224;-43
2023/09/28 11:11:58;;;;;;;3.17;2.10;;;;;;;;;;5085777;28;20601;-39
2023/09/28 11:14:26;;;;;;;4.30;2.30;;;;;;;;;;5093139;28;20205;-45
2023/09/28 11:16:53;;;;;;;2.17;1.93;;;;;;;;;;5090081;28;20201;-46
2023/09/28 11:19:22;;;;;;;2.00;1.63;;;;;;;;;;5085735;28;20265;-41
2023/09/28 11:21:50;;;;;;;2.53;2.17;;;;;;;;;;5088550;28;20225;-38
2023/09/28 11:24:19;;;;;;;1.93;1.73;;;;;;;;;;5092587;28;20216;-43
2023/09/28 11:26:46;;;;;;;1.97;1.80;;;;;;;;;;5086519;28;20296;-43
2023/09/28 11:29:13;;;;;;;3.10;1.90;;;;;;;;;;5088363;28;20208;-45
2023/09/28 11:31:50;;;;;;;3.60;2.17;;;;;;;;;;5093496;28;20388;-45
2023/09/28 11:34:29;;;;;;;3.57;2.20;;;;;;;;;;5091023;28;20206;-41
2023/09/28 11:36:56;;;;;;;2.80;2.03;;;;;;;;;;5092710;28;20198;-41
2023/09/28 11:39:28;;;;;;;2.10;1.90;;;;;;;;;;5089388;28;20233;-43
2023/09/28 11:41:56;;;;;;;3.03;2.00;;;;;;;;;;5085471;28;20233;-40
2023/09/28 11:44:25;;;;;;;2.77;2.17;;;;;;;;;;5090729;28;20206;-40
2023/09/28 11:46:53;;;;;;;2.00;1.80;;;;;;;;;;5084252;28;20215;-41
2023/09/28 11:49:21;;;;;;;2.73;1.73;;;;;;;;;;5083169;28;20223;-39
2023/09/28 11:51:48;;;;;;;2.93;1.67;;;;;;;;;;5084095;28;20437;-44
2023/09/28 11:54:17;;;;;;;3.33;1.50;;;;;;;;;;5076160;28;20212;-42
2023/09/28 11:56:45;;;;;;;3.43;1.80;;;;;;;;;;5085068;28;20199;-37
2023/09/28 11:59:15;;;;;;;1.60;1.47;;;;;;;;;;5083062;28;20288;-41
2023/09/28 12:01:42;;;;;;;2.90;1.57;;;;;;;;;;5092258;28;20207;-42
2023/09/28 12:04:10;;;;;;;1.87;1.70;;;;;;;;;;5073766;28;20223;-40
2023/09/28 12:06:37;;;;;;;3.33;1.40;;;;;;;;;;5092358;28;20331;-41
2023/09/28 12:09:06;;;;;;;2.33;1.90;;;;;;;;;;5092066;28;20206;-45
2023/09/28 12:11:33;;;;;;;4.63;1.60;;;;;;;;;;5090531;28;20299;-43
2023/09/28 12:14:02;;;;;;;1.33;1.23;;;;;;;;;;5080377;28;20660;-41
2023/09/28 12:16:29;;;;;;;1.17;0.97;;;;;;;;;;5081859;28;20316;-41
2023/09/28 12:18:56;;;;;;;2.97;1.40;;;;;;;;;;5089670;28;20227;-42
2023/09/28 12:21:23;;;;;;;1.30;1.20;;;;;;;;;;5085505;28;20924;-42
2023/09/28 12:23:51;;;;;;;2.27;1.60;;;;;;;;;;5082272;28;20205;-43
2023/09/28 12:26:18;;;;;;;1.67;1.47;;;;;;;;;;5077571;28;20290;-40
2023/09/28 12:28:45;;;;;;;2.37;1.47;;;;;;;;;;5080020;28;20215;-46
2023/09/28 12:31:14;;;;;;;1.23;1.10;;;;;;;;;;5080581;28;20229;-40
2023/09/28 12:33:41;;;;;;;1.30;1.20;;;;;;;;;;5084172;28;20203;-41
2023/09/28 12:36:09;;;;;;;1.17;1.03;;;;;;;;;;5079674;28;20301;-40
2023/09/28 12:38:36;;;;;;;1.40;1.30;;;;;;;;;;5077718;28;20201;-44
2023/09/28 12:41:05;;;;;;;2.37;1.40;;;;;;;;;;5079315;28;20252;-42
2023/09/28 12:43:32;;;;;;;1.80;1.33;;;;;;;;;;5089444;28;20338;-42
2023/09/28 12:45:59;;;;;;;1.87;1.43;;;;;;;;;;5082829;28;20386;-38
2023/09/28 12:48:29;;;;;;;1.53;1.40;;;;;;;;;;5080087;28;20209;-39
2023/09/28 12:50:56;;;;;;;4.23;1.83;;;;;;;;;;5087599;28;20220;-40
2023/09/28 12:53:25;;;;;;;3.23;1.60;;;;;;;;;;5075758;28;20204;-42
2023/09/28 12:55:52;;;;;;;3.17;1.60;;;;;;;;;;5079242;28;20390;-43
2023/09/28 12:58:19;;;;;;;3.00;1.50;;;;;;;;;;5087555;28;20240;-43
2023/09/28 13:00:47;;;;;;;1.77;1.17;;;;;;;;;;5078528;28;20246;-42
2023/09/28 13:03:14;;;;;;;2.30;1.37;;;;;;;;;;5090966;28;20209;-40
2023/09/28 13:05:42;;;;;;;2.33;1.20;;;;;;;;;;5082988;28;20204;-41
2023/09/28 13:08:12;;;;;;;1.47;1.37;;;;;;;;;;5081479;28;20205;-41
2023/09/28 13:10:40;;;;;;;2.87;1.40;;;;;;;;;;5079029;28;20230;-44
2023/09/28 13:13:07;;;;;;;1.63;1.53;;;;;;;;;;5093022;28;20210;-41
2023/09/28 13:15:34;;;;;;;2.20;1.43;;;;;;;;;;5087788;28;20283;-43
2023/09/28 13:18:06;;;;;;;1.60;1.50;;;;;;;;;;5093037;28;20212;-39
2023/09/28 13:20:36;;;;;;;2.57;1.37;;;;;;;;;;5087907;28;20238;-41
2023/09/28 13:23:05;;;;;;;2.83;1.47;;;;;;;;;;5086803;28;20319;-43
2023/09/28 13:25:33;;;;;;;1.50;1.30;;;;;;;;;;5082567;28;20215;-40
2023/09/28 13:28:00;;;;;;;1.97;1.77;;;;;;;;;;5088891;28;20257;-39
2023/09/28 13:30:29;;;;;;;3.63;1.47;;;;;;;;;;5087966;28;20230;-38
2023/09/28 13:32:56;;;;;;;1.87;1.40;;;;;;;;;;5089319;28;20215;-41
2023/09/28 13:35:25;;;;;;;4.60;1.50;;;;;;;;;;5092661;28;20270;-42
2023/09/28 13:37:52;;;;;;;1.80;1.40;;;;;;;;;;5089665;28;20233;-43
2023/09/28 13:40:22;;;;;;;5.77;1.40;;;;;;;;;;5083634;28;20220;-40
2023/09/28 13:42:50;;;;;;;2.00;1.43;;;;;;;;;;5094100;28;20220;-42
2023/09/28 13:45:18;;;;;;;1.40;1.30;;;;;;;;;;5087251;28;20459;-40
2023/09/28 13:47:45;;;;;;;1.50;1.40;;;;;;;;;;5088108;28;20201;-42
2023/09/28 13:50:16;;;;;;;1.63;1.37;;;;;;;;;;5085177;28;20721;-37
2023/09/28 13:52:45;;;;;;;1.35;1.25;;;;;;;;;;5084565;28;20288;-45
2023/09/28 13:55:16;;;;;;;1.67;1.30;;;;;;;;;;5083497;28;20227;-43
2023/09/28 13:57:44;;;;;;;2.13;1.40;;;;;;;;;;5093491;28;20612;-41
2023/09/28 14:00:28;;;;;;;1.40;1.30;;;;;;;;;;5094170;28;20224;-44
2023/09/28 14:02:56;;;;;;;1.90;1.40;;;;;;;;;;5088985;28;20215;-42
2023/09/28 14:05:24;;;;;;;6.10;1.60;;;;;;;;;;5089696;28;20212;-42
2023/09/28 14:07:51;;;;;;;2.58;1.63;;;;;;;;;;5080771;28;20201;-41
2023/09/28 14:10:19;;;;;;;1.70;1.60;;;;;;;;;;5075084;28;20308;-44
2023/09/28 14:12:48;;;;;;;1.25;1.15;;;;;;;;;;5091557;28;20207;-36
2023/09/28 14:15:15;;;;;;;2.10;1.40;;;;;;;;;;5089333;28;20284;-41
2023/09/28 14:17:43;;;;;;;4.07;1.70;;;;;;;;;;5087290;28;20303;-45
2023/09/28 14:20:11;;;;;;;2.28;1.63;;;;;;;;;;5091138;28;20232;-41
2023/09/28 14:22:39;;;;;;;1.90;1.33;;;;;;;;;;5088168;28;20204;-40
2023/09/28 14:25:08;;;;;;;2.08;1.70;;;;;;;;;;5082948;28;20200;-43
2023/09/28 14:27:36;;;;;;;8.67;1.70;;;;;;;;;;5093766;28;20209;-43
2023/09/28 14:30:06;;;;;;;1.65;1.52;;;;;;;;;;5093429;28;20224;-42
2023/09/28 14:32:33;;;;;;;2.63;1.50;;;;;;;;;;5093619;28;20242;-45
2023/09/28 14:35:01;;;;;;;3.00;1.80;;;;;;;;;;5086825;28;20209;-42
2023/09/28 14:37:28;;;;;;;1.50;1.40;;;;;;;;;;5090092;28;20201;-43
2023/09/28 14:39:57;;;;;;;1.60;1.50;;;;;;;;;;5090068;28;20219;-45
2023/09/28 14:42:24;;;;;;;2.90;1.63;;;;;;;;;;5087820;28;20221;-44
2023/09/28 14:44:53;;;;;;;1.83;1.60;;;;;;;;;;5085361;28;20216;-41
2023/09/28 14:47:22;;;;;;;2.40;1.65;;;;;;;;;;5089737;28;20220;-39